sensor_id;sensor_type;location;lat;lon;timestamp;pressure;altitude;pressure_sealevel;temperature;humidity
14269;BME280;7218;51.480;7.006;2023-08-17T00:00:42;100157.47;;;13.44;100.00
14269;BME280;7218;51.480;7.006;2023-08-17T00:03:08;100153.97;;;13.43;100.00
14269;BME280;7218;51.480;7.006;2023-08-17T00:05:35;100147.63;;;13.24;100.00
14269;BME280;7218;51.480;7.006;2023-08-17T00:08:02;100164.66;;;13.37;100.00
14269;BME280;7218;51.480;7.006;2023-08-17T00:10:29;100168.25;;;13.34;100.00
14269;BME280;7218;51.480;7.006;2023-08-17T00:12:57;100177.03;;;13.32;100.00
14269;BME280;7218;51.480;7.006;2023-08-17T00:15:24;100187.63;;;13.29;100.00
14269;BME280;7218;51.480;7.006;2023-08-17T00:17:50;100190.25;;;13.29;100.00
14269;BME280;7218;51.480;7.006;2023-08-17T00:20:17;100186.50;;;13.36;100.00
14269;BME280;7218;51.480;7.006;2023-08-17T00:22:43;100185.31;;;13.46;100.00
14269;BME280;7218;51.480;7.006;2023-08-17T00:25:10;100175.72;;;13.45;100.00
14269;BME280;7218;51.480;7.006;2023-08-17T00:27:36;100153.88;;;13.46;100.00
14269;BME280;7218;51.480;7.006;2023-08-17T00:30:05;100152.56;;;13.33;100.00
14269;BME280;7218;51.480;7.006;2023-08-17T00:32:32;100154.19;;;13.37;100.00
14269;BME280;7218;51.480;7.006;2023-08-17T00:34:58;100155.16;;;13.34;100.00
14269;BME280;7218;51.480;7.006;2023-08-17T00:37:25;100153.16;;;13.41;100.00
14269;BME280;7218;51.480;7.006;2023-08-17T00:39:51;100149.84;;;13.36;100.00
14269;BME280;7218;51.480;7.006;2023-08-17T00:42:18;100151.91;;;13.26;100.00
14269;BME280;7218;51.480;7.006;2023-08-17T00:44:44;100149.25;;;13.28;100.00
14269;BME280;7218;51.480;7.006;2023-08-17T00:47:14;100144.25;;;13.20;100.00
14269;BME280;7218;51.480;7.006;2023-08-17T00:49:41;100147.78;;;13.19;100.00
14269;BME280;7218;51.480;7.006;2023-08-17T00:52:07;100137.19;;;13.22;100.00
14269;BME280;7218;51.480;7.006;2023-08-17T00:54:34;100142.25;;;13.28;100.00
14269;BME280;7218;51.480;7.006;2023-08-17T00:57:00;100148.34;;;13.29;100.00
14269;BME280;7218;51.480;7.006;2023-08-17T00:59:29;100144.00;;;13.28;100.00
14269;BME280;7218;51.480;7.006;2023-08-17T01:01:55;100150.97;;;13.29;100.00
14269;BME280;7218;51.480;7.006;2023-08-17T01:04:23;100150.03;;;13.30;100.00
14269;BME280;7218;51.480;7.006;2023-08-17T01:06:50;100144.88;;;13.28;100.00
14269;BME280;7218;51.480;7.006;2023-08-17T01:09:16;100149.25;;;13.28;100.00
14269;BME280;7218;51.480;7.006;2023-08-17T01:11:48;100169.06;;;13.35;100.00
14269;BME280;7218;51.480;7.006;2023-08-17T01:14:21;100157.53;;;13.41;100.00
14269;BME280;7218;51.480;7.006;2023-08-17T01:16:56;100160.13;;;13.42;100.00
14269;BME280;7218;51.480;7.006;2023-08-17T01:19:27;100150.53;;;13.41;100.00
14269;BME280;7218;51.480;7.006;2023-08-17T01:21:56;100146.63;;;13.28;100.00
14269;BME280;7218;51.480;7.006;2023-08-17T01:24:25;100141.44;;;13.26;100.00
14269;BME280;7218;51.480;7.006;2023-08-17T01:26:52;100136.25;;;13.25;100.00
14269;BME280;7218;51.480;7.006;2023-08-17T01:29:18;100138.06;;;13.23;100.00
14269;BME280;7218;51.480;7.006;2023-08-17T01:31:51;100142.47;;;13.21;100.00
14269;BME280;7218;51.480;7.006;2023-08-17T01:34:22;100135.59;;;13.18;100.00
14269;BME280;7218;51.480;7.006;2023-08-17T01:36:52;100139.88;;;13.21;100.00
14269;BME280;7218;51.480;7.006;2023-08-17T01:39:21;100137.91;;;13.27;100.00
14269;BME280;7218;51.480;7.006;2023-08-17T01:41:52;100132.63;;;13.29;100.00
14269;BME280;7218;51.480;7.006;2023-08-17T01:44:21;100123.97;;;13.27;100.00
14269;BME280;7218;51.480;7.006;2023-08-17T01:46:48;100125.56;;;13.31;100.00
14269;BME280;7218;51.480;7.006;2023-08-17T01:49:14;100119.63;;;13.26;100.00
14269;BME280;7218;51.480;7.006;2023-08-17T01:51:41;100120.47;;;13.26;100.00
14269;BME280;7218;51.480;7.006;2023-08-17T01:54:08;100110.88;;;13.27;100.00
14269;BME280;7218;51.480;7.006;2023-08-17T01:56:34;100098.78;;;13.23;100.00
14269;BME280;7218;51.480;7.006;2023-08-17T01:59:02;100094.25;;;13.28;100.00
14269;BME280;7218;51.480;7.006;2023-08-17T02:01:29;100098.06;;;13.18;100.00
14269;BME280;7218;51.480;7.006;2023-08-17T02:03:55;100100.81;;;13.15;100.00
14269;BME280;7218;51.480;7.006;2023-08-17T02:06:22;100100.06;;;13.10;100.00
14269;BME280;7218;51.480;7.006;2023-08-17T02:08:48;100100.91;;;13.10;100.00
14269;BME280;7218;51.480;7.006;2023-08-17T02:11:15;100102.66;;;13.11;100.00
14269;BME280;7218;51.480;7.006;2023-08-17T02:13:41;100105.31;;;13.10;100.00
14269;BME280;7218;51.480;7.006;2023-08-17T02:16:09;100106.94;;;13.14;100.00
14269;BME280;7218;51.480;7.006;2023-08-17T02:18:36;100099.47;;;13.00;100.00
14269;BME280;7218;51.480;7.006;2023-08-17T02:21:03;100098.53;;;13.03;100.00
14269;BME280;7218;51.480;7.006;2023-08-17T02:23:29;100094.22;;;13.02;100.00
14269;BME280;7218;51.480;7.006;2023-08-17T02:25:56;100100.25;;;13.04;100.00
14269;BME280;7218;51.480;7.006;2023-08-17T02:28:22;100101.00;;;13.07;100.00
14269;BME280;7218;51.480;7.006;2023-08-17T02:30:48;100096.59;;;13.09;100.00
14269;BME280;7218;51.480;7.006;2023-08-17T02:33:16;100089.78;;;13.04;100.00
14269;BME280;7218;51.480;7.006;2023-08-17T02:35:48;100091.59;;;13.02;100.00
14269;BME280;7218;51.480;7.006;2023-08-17T02:38:14;100088.25;;;12.97;100.00
14269;BME280;7218;51.480;7.006;2023-08-17T02:40:41;100088.56;;;12.87;100.00
14269;BME280;7218;51.480;7.006;2023-08-17T02:43:07;100089.28;;;12.92;100.00
14269;BME280;7218;51.480;7.006;2023-08-17T02:45:34;100087.50;;;12.93;100.00
14269;BME280;7218;51.480;7.006;2023-08-17T02:48:01;100083.03;;;12.97;100.00
14269;BME280;7218;51.480;7.006;2023-08-17T02:50:29;100090.72;;;13.01;100.00
14269;BME280;7218;51.480;7.006;2023-08-17T02:52:55;100094.25;;;13.00;100.00
14269;BME280;7218;51.480;7.006;2023-08-17T02:55:22;100092.59;;;12.98;100.00
14269;BME280;7218;51.480;7.006;2023-08-17T02:57:48;100086.53;;;12.95;100.00
14269;BME280;7218;51.480;7.006;2023-08-17T03:00:15;100084.22;;;12.86;100.00
14269;BME280;7218;51.480;7.006;2023-08-17T03:02:41;100081.47;;;12.91;100.00
14269;BME280;7218;51.480;7.006;2023-08-17T03:05:08;100091.22;;;12.86;100.00
14269;BME280;7218;51.480;7.006;2023-08-17T03:07:36;100095.38;;;12.93;100.00
14269;BME280;7218;51.480;7.006;2023-08-17T03:10:03;100091.19;;;12.87;100.00
14269;BME280;7218;51.480;7.006;2023-08-17T03:12:29;100095.81;;;12.79;100.00
14269;BME280;7218;51.480;7.006;2023-08-17T03:14:56;100098.34;;;12.81;100.00
14269;BME280;7218;51.480;7.006;2023-08-17T03:17:22;100097.41;;;12.83;100.00
14269;BME280;7218;51.480;7.006;2023-08-17T03:19:49;100094.69;;;12.86;100.00
14269;BME280;7218;51.480;7.006;2023-08-17T03:22:15;100096.44;;;12.86;100.00
14269;BME280;7218;51.480;7.006;2023-08-17T03:24:43;100102.66;;;12.83;100.00
14269;BME280;7218;51.480;7.006;2023-08-17T03:27:09;100101.03;;;12.79;100.00
14269;BME280;7218;51.480;7.006;2023-08-17T03:29:36;100100.91;;;12.84;100.00
14269;BME280;7218;51.480;7.006;2023-08-17T03:32:03;100094.81;;;12.83;100.00
14269;BME280;7218;51.480;7.006;2023-08-17T03:34:29;100095.50;;;12.88;100.00
14269;BME280;7218;51.480;7.006;2023-08-17T03:36:56;100097.59;;;12.77;100.00
14269;BME280;7218;51.480;7.006;2023-08-17T03:39:22;100096.53;;;12.84;100.00
14269;BME280;7218;51.480;7.006;2023-08-17T03:41:50;100097.16;;;12.91;100.00
14269;BME280;7218;51.480;7.006;2023-08-17T03:44:16;100095.59;;;12.85;100.00
14269;BME280;7218;51.480;7.006;2023-08-17T03:46:43;100098.22;;;12.85;100.00
14269;BME280;7218;51.480;7.006;2023-08-17T03:49:09;100095.31;;;12.94;100.00
14269;BME280;7218;51.480;7.006;2023-08-17T03:51:36;100092.00;;;12.89;100.00
14269;BME280;7218;51.480;7.006;2023-08-17T03:54:03;100091.03;;;12.92;100.00
14269;BME280;7218;51.480;7.006;2023-08-17T03:56:30;100096.41;;;12.87;100.00
14269;BME280;7218;51.480;7.006;2023-08-17T03:58:58;100091.19;;;12.87;100.00
14269;BME280;7218;51.480;7.006;2023-08-17T04:01:24;100099.13;;;12.84;100.00
14269;BME280;7218;51.480;7.006;2023-08-17T04:03:51;100096.72;;;12.78;100.00
14269;BME280;7218;51.480;7.006;2023-08-17T04:06:17;100102.84;;;12.77;100.00
14269;BME280;7218;51.480;7.006;2023-08-17T04:08:44;100101.03;;;12.79;100.00
14269;BME280;7218;51.480;7.006;2023-08-17T04:11:11;100098.50;;;12.76;100.00
14269;BME280;7218;51.480;7.006;2023-08-17T04:13:38;100106.28;;;12.79;100.00
14269;BME280;7218;51.480;7.006;2023-08-17T04:16:05;100093.13;;;12.81;100.00
14269;BME280;7218;51.480;7.006;2023-08-17T04:18:32;100105.63;;;12.71;100.00
14269;BME280;7218;51.480;7.006;2023-08-17T04:20:58;100107.34;;;12.72;100.00
14269;BME280;7218;51.480;7.006;2023-08-17T04:23:25;100102.03;;;12.75;100.00
14269;BME280;7218;51.480;7.006;2023-08-17T04:25:53;100105.63;;;12.71;100.00
14269;BME280;7218;51.480;7.006;2023-08-17T04:28:20;100099.66;;;12.68;100.00
14269;BME280;7218;51.480;7.006;2023-08-17T04:30:45;100102.13;;;12.72;100.00
14269;BME280;7218;51.480;7.006;2023-08-17T04:33:13;100101.91;;;12.80;100.00
14269;BME280;7218;51.480;7.006;2023-08-17T04:35:40;100103.03;;;12.71;100.00
14269;BME280;7218;51.480;7.006;2023-08-17T04:38:06;100104.75;;;12.72;100.00
14269;BME280;7218;51.480;7.006;2023-08-17T04:40:33;100096.03;;;12.72;100.00
14269;BME280;7218;51.480;7.006;2023-08-17T04:42:59;100097.06;;;12.66;100.00
14269;BME280;7218;51.480;7.006;2023-08-17T04:45:26;100097.03;;;12.68;100.00
14269;BME280;7218;51.480;7.006;2023-08-17T04:47:52;100098.78;;;12.67;100.00
14269;BME280;7218;51.480;7.006;2023-08-17T04:50:20;100099.53;;;12.71;100.00
14269;BME280;7218;51.480;7.006;2023-08-17T04:52:47;100103.81;;;12.75;100.00
14269;BME280;7218;51.480;7.006;2023-08-17T04:55:14;100107.97;;;12.80;100.00
14269;BME280;7218;51.480;7.006;2023-08-17T04:57:40;100102.72;;;12.80;100.00
14269;BME280;7218;51.480;7.006;2023-08-17T05:00:07;100108.63;;;12.87;100.00
14269;BME280;7218;51.480;7.006;2023-08-17T05:02:35;100108.69;;;12.85;100.00
14269;BME280;7218;51.480;7.006;2023-08-17T05:05:03;100102.53;;;12.86;100.00
14269;BME280;7218;51.480;7.006;2023-08-17T05:07:30;100105.94;;;12.90;100.00
14269;BME280;7218;51.480;7.006;2023-08-17T05:09:57;100108.63;;;12.87;100.00
14269;BME280;7218;51.480;7.006;2023-08-17T05:12:23;100116.34;;;12.91;100.00
14269;BME280;7218;51.480;7.006;2023-08-17T05:14:50;100105.00;;;12.91;100.00
14269;BME280;7218;51.480;7.006;2023-08-17T05:17:16;100110.25;;;12.91;100.00
14269;BME280;7218;51.480;7.006;2023-08-17T05:19:43;100109.31;;;12.93;100.00
14269;BME280;7218;51.480;7.006;2023-08-17T05:22:11;100111.66;;;13.01;100.00
14269;BME280;7218;51.480;7.006;2023-08-17T05:24:40;100109.91;;;13.02;100.00
14269;BME280;7218;51.480;7.006;2023-08-17T05:27:06;100109.84;;;13.05;100.00
14269;BME280;7218;51.480;7.006;2023-08-17T05:29:33;100111.78;;;12.98;100.00
14269;BME280;7218;51.480;7.006;2023-08-17T05:31:59;100122.91;;;13.05;100.00
14269;BME280;7218;51.480;7.006;2023-08-17T05:34:26;100116.81;;;13.04;100.00
14269;BME280;7218;51.480;7.006;2023-08-17T05:36:52;100121.19;;;13.04;100.00
14269;BME280;7218;51.480;7.006;2023-08-17T05:39:19;100124.59;;;13.06;100.00
14269;BME280;7218;51.480;7.006;2023-08-17T05:41:47;100120.94;;;13.13;100.00
14269;BME280;7218;51.480;7.006;2023-08-17T05:44:14;100125.38;;;13.09;100.00
14269;BME280;7218;51.480;7.006;2023-08-17T05:46:40;100115.66;;;13.14;100.00
14269;BME280;7218;51.480;7.006;2023-08-17T05:49:07;100127.88;;;13.14;100.00
14269;BME280;7218;51.480;7.006;2023-08-17T05:51:33;100123.59;;;13.11;100.00
14269;BME280;7218;51.480;7.006;2023-08-17T05:54:00;100126.16;;;13.13;100.00
14269;BME280;7218;51.480;7.006;2023-08-17T05:56:26;100130.41;;;13.17;100.00
14269;BME280;7218;51.480;7.006;2023-08-17T05:58:55;100134.44;;;13.27;100.00
14269;BME280;7218;51.480;7.006;2023-08-17T06:01:21;100130.94;;;13.26;100.00
14269;BME280;7218;51.480;7.006;2023-08-17T06:03:48;100130.16;;;13.24;100.00
14269;BME280;7218;51.480;7.006;2023-08-17T06:06:15;100132.72;;;13.26;100.00
14269;BME280;7218;51.480;7.006;2023-08-17T06:08:41;100128.50;;;13.22;100.00
14269;BME280;7218;51.480;7.006;2023-08-17T06:11:08;100127.69;;;13.20;100.00
14269;BME280;7218;51.480;7.006;2023-08-17T06:13:34;100118.13;;;13.19;100.00
14269;BME280;7218;51.480;7.006;2023-08-17T06:16:02;100125.56;;;13.31;100.00
14269;BME280;7218;51.480;7.006;2023-08-17T06:18:29;100123.06;;;13.28;100.00
14269;BME280;7218;51.480;7.006;2023-08-17T06:20:56;100127.41;;;13.29;100.00
14269;BME280;7218;51.480;7.006;2023-08-17T06:23:23;100117.66;;;13.32;100.00
14269;BME280;7218;51.480;7.006;2023-08-17T06:25:50;100121.94;;;13.35;100.00
14269;BME280;7218;51.480;7.006;2023-08-17T06:28:16;100119.13;;;13.41;100.00
14269;BME280;7218;51.480;7.006;2023-08-17T06:30:43;100126.97;;;13.41;100.00
14269;BME280;7218;51.480;7.006;2023-08-17T06:33:10;100126.72;;;13.49;100.00
14269;BME280;7218;51.480;7.006;2023-08-17T06:35:37;100125.38;;;13.37;100.00
14269;BME280;7218;51.480;7.006;2023-08-17T06:38:03;100123.25;;;13.48;100.00
14269;BME280;7218;51.480;7.006;2023-08-17T06:40:30;100134.78;;;13.43;100.00
14269;BME280;7218;51.480;7.006;2023-08-17T06:42:56;100136.34;;;13.48;100.00
14269;BME280;7218;51.480;7.006;2023-08-17T06:45:23;100135.34;;;13.52;100.00
14269;BME280;7218;51.480;7.006;2023-08-17T06:47:49;100135.28;;;13.54;100.00
14269;BME280;7218;51.480;7.006;2023-08-17T06:50:17;100138.44;;;13.63;100.00
14269;BME280;7218;51.480;7.006;2023-08-17T06:52:44;100137.56;;;13.64;100.00
14269;BME280;7218;51.480;7.006;2023-08-17T06:55:10;100140.22;;;13.63;100.00
14269;BME280;7218;51.480;7.006;2023-08-17T06:57:37;100143.56;;;13.66;100.00
14269;BME280;7218;51.480;7.006;2023-08-17T07:00:04;100146.03;;;13.71;100.00
14269;BME280;7218;51.480;7.006;2023-08-17T07:02:32;100139.69;;;13.78;100.00
14269;BME280;7218;51.480;7.006;2023-08-17T07:04:59;100147.72;;;13.73;100.00
14269;BME280;7218;51.480;7.006;2023-08-17T07:07:27;100147.44;;;13.81;100.00
14269;BME280;7218;51.480;7.006;2023-08-17T07:09:53;100150.97;;;13.80;100.00
14269;BME280;7218;51.480;7.006;2023-08-17T07:12:20;100152.34;;;13.90;100.00
14269;BME280;7218;51.480;7.006;2023-08-17T07:14:46;100148.81;;;13.91;100.00
14269;BME280;7218;51.480;7.006;2023-08-17T07:17:13;100152.25;;;13.93;100.00
14269;BME280;7218;51.480;7.006;2023-08-17T07:19:40;100143.09;;;14.05;100.00
14269;BME280;7218;51.480;7.006;2023-08-17T07:22:07;100134.41;;;14.04;100.00
14269;BME280;7218;51.480;7.006;2023-08-17T07:24:35;100141.41;;;14.27;100.00
14269;BME280;7218;51.480;7.006;2023-08-17T07:27:01;100148.94;;;14.38;100.00
14269;BME280;7218;51.480;7.006;2023-08-17T07:29:28;100145.28;;;14.42;100.00
14269;BME280;7218;51.480;7.006;2023-08-17T07:31:54;100130.50;;;14.62;100.00
14269;BME280;7218;51.480;7.006;2023-08-17T07:34:23;100139.97;;;14.67;100.00
14269;BME280;7218;51.480;7.006;2023-08-17T07:36:50;100143.72;;;14.59;100.00
14269;BME280;7218;51.480;7.006;2023-08-17T07:39:16;100143.03;;;14.78;100.00
14269;BME280;7218;51.480;7.006;2023-08-17T07:41:45;100148.47;;;14.95;100.00
14269;BME280;7218;51.480;7.006;2023-08-17T07:44:11;100152.56;;;15.02;100.00
14269;BME280;7218;51.480;7.006;2023-08-17T07:46:38;100155.88;;;15.07;100.00
14269;BME280;7218;51.480;7.006;2023-08-17T07:49:04;100152.34;;;15.08;100.00
14269;BME280;7218;51.480;7.006;2023-08-17T07:51:31;100150.63;;;15.07;100.00
14269;BME280;7218;51.480;7.006;2023-08-17T07:53:59;100160.41;;;15.03;100.00
14269;BME280;7218;51.480;7.006;2023-08-17T07:56:25;100172.47;;;14.86;100.00
14269;BME280;7218;51.480;7.006;2023-08-17T07:58:54;100170.38;;;14.72;100.00
14269;BME280;7218;51.480;7.006;2023-08-17T08:01:20;100179.47;;;14.63;100.00
14269;BME280;7218;51.480;7.006;2023-08-17T08:03:47;100171.44;;;14.67;100.00
14269;BME280;7218;51.480;7.006;2023-08-17T08:06:13;100161.50;;;14.75;100.00
14269;BME280;7218;51.480;7.006;2023-08-17T08:08:40;100165.84;;;14.76;100.00
14269;BME280;7218;51.480;7.006;2023-08-17T08:11:06;100172.13;;;14.72;100.00
14269;BME280;7218;51.480;7.006;2023-08-17T08:13:36;100167.56;;;14.77;100.00
14269;BME280;7218;51.480;7.006;2023-08-17T08:16:04;100180.47;;;14.83;100.00
14269;BME280;7218;51.480;7.006;2023-08-17T08:18:30;100193.25;;;14.69;100.00
14269;BME280;7218;51.480;7.006;2023-08-17T08:20:57;100177.44;;;14.70;100.00
14269;BME280;7218;51.480;7.006;2023-08-17T08:23:23;100183.25;;;14.55;100.00
14269;BME280;7218;51.480;7.006;2023-08-17T08:25:50;100175.34;;;14.56;100.00
14269;BME280;7218;51.480;7.006;2023-08-17T08:28:16;100181.09;;;14.66;100.00
14269;BME280;7218;51.480;7.006;2023-08-17T08:30:42;100186.38;;;14.64;100.00
14269;BME280;7218;51.480;7.006;2023-08-17T08:33:10;100175.63;;;14.72;100.00
14269;BME280;7218;51.480;7.006;2023-08-17T08:35:38;100177.94;;;14.80;100.00
14269;BME280;7218;51.480;7.006;2023-08-17T08:38:04;100184.91;;;14.81;100.00
14269;BME280;7218;51.480;7.006;2023-08-17T08:40:31;100181.41;;;14.80;100.00
14269;BME280;7218;51.480;7.006;2023-08-17T08:42:58;100183.19;;;14.80;100.00
14269;BME280;7218;51.480;7.006;2023-08-17T08:45:27;100179.91;;;14.96;100.00
14269;BME280;7218;51.480;7.006;2023-08-17T08:47:56;100178.34;;;14.92;100.00
14269;BME280;7218;51.480;7.006;2023-08-17T08:50:25;100167.22;;;15.07;100.00
14269;BME280;7218;51.480;7.006;2023-08-17T08:52:58;100169.00;;;15.07;100.00
14269;BME280;7218;51.480;7.006;2023-08-17T08:55:28;100172.84;;;15.20;100.00
14269;BME280;7218;51.480;7.006;2023-08-17T08:57:56;100166.00;;;15.16;100.00
14269;BME280;7218;51.480;7.006;2023-08-17T09:00:24;100168.94;;;15.30;100.00
14269;BME280;7218;51.480;7.006;2023-08-17T09:02:51;100169.72;;;15.32;100.00
14269;BME280;7218;51.480;7.006;2023-08-17T09:05:18;100167.63;;;15.40;100.00
14269;BME280;7218;51.480;7.006;2023-08-17T09:07:48;100163.56;;;15.33;100.00
14269;BME280;7218;51.480;7.006;2023-08-17T09:10:15;100161.22;;;15.47;100.00
14269;BME280;7218;51.480;7.006;2023-08-17T09:12:43;100156.22;;;15.41;100.00
14269;BME280;7218;51.480;7.006;2023-08-17T09:15:09;100154.00;;;15.54;100.00
14269;BME280;7218;51.480;7.006;2023-08-17T09:17:36;100151.03;;;15.62;100.00
14269;BME280;7218;51.480;7.006;2023-08-17T09:20:03;100159.31;;;15.73;100.00
14269;BME280;7218;51.480;7.006;2023-08-17T09:22:40;100159.38;;;15.71;100.00
14269;BME280;7218;51.480;7.006;2023-08-17T09:25:09;100158.97;;;15.60;100.00
14269;BME280;7218;51.480;7.006;2023-08-17T09:27:36;100163.72;;;15.50;100.00
14269;BME280;7218;51.480;7.006;2023-08-17T09:30:03;100168.03;;;15.53;100.00
14269;BME280;7218;51.480;7.006;2023-08-17T09:32:31;100162.44;;;15.61;100.00
14269;BME280;7218;51.480;7.006;2023-08-17T09:35:00;100161.50;;;15.63;100.00
14269;BME280;7218;51.480;7.006;2023-08-17T09:37:27;100152.50;;;15.69;100.00
14269;BME280;7218;51.480;7.006;2023-08-17T09:39:54;100164.19;;;15.82;100.00
14269;BME280;7218;51.480;7.006;2023-08-17T09:42:22;100161.88;;;15.94;100.00
14269;BME280;7218;51.480;7.006;2023-08-17T09:44:51;100167.31;;;15.90;100.00
14269;BME280;7218;51.480;7.006;2023-08-17T09:47:17;100156.69;;;15.93;100.00
14269;BME280;7218;51.480;7.006;2023-08-17T09:49:48;100156.28;;;16.02;100.00
14269;BME280;7218;51.480;7.006;2023-08-17T09:52:14;100154.06;;;15.93;100.00
14269;BME280;7218;51.480;7.006;2023-08-17T09:54:41;100151.88;;;16.03;100.00
14269;BME280;7218;51.480;7.006;2023-08-17T09:57:08;100149.00;;;16.09;100.00
14269;BME280;7218;51.480;7.006;2023-08-17T09:59:37;100141.38;;;16.03;100.00
14269;BME280;7218;51.480;7.006;2023-08-17T10:02:10;100137.06;;;16.20;100.00
14269;BME280;7218;51.480;7.006;2023-08-17T10:04:41;100141.41;;;16.21;100.00
14269;BME280;7218;51.480;7.006;2023-08-17T10:07:09;100156.16;;;16.05;100.00
14269;BME280;7218;51.480;7.006;2023-08-17T10:09:42;100147.50;;;16.03;100.00
14269;BME280;7218;51.480;7.006;2023-08-17T10:12:14;100143.41;;;15.96;100.00
14269;BME280;7218;51.480;7.006;2023-08-17T10:14:54;100146.44;;;16.07;100.00
14269;BME280;7218;51.480;7.006;2023-08-17T10:17:26;100153.69;;;16.21;100.00
14269;BME280;7218;51.480;7.006;2023-08-17T10:19:54;100151.09;;;16.40;100.00
14269;BME280;7218;51.480;7.006;2023-08-17T10:22:27;100142.50;;;16.55;100.00
14269;BME280;7218;51.480;7.006;2023-08-17T10:24:55;100132.84;;;16.74;100.00
14269;BME280;7218;51.480;7.006;2023-08-17T10:27:23;100132.81;;;17.11;100.00
14269;BME280;7218;51.480;7.006;2023-08-17T10:29:52;100138.72;;;17.34;100.00
14269;BME280;7218;51.480;7.006;2023-08-17T10:32:21;100136.13;;;17.51;100.00
14269;BME280;7218;51.480;7.006;2023-08-17T10:34:48;100130.44;;;17.24;100.00
14269;BME280;7218;51.480;7.006;2023-08-17T10:37:17;100132.00;;;17.28;100.00
14269;BME280;7218;51.480;7.006;2023-08-17T10:39:45;100136.41;;;17.28;100.00
14269;BME280;7218;51.480;7.006;2023-08-17T10:42:12;100131.25;;;17.07;100.00
14269;BME280;7218;51.480;7.006;2023-08-17T10:44:41;100136.47;;;16.90;100.00
14269;BME280;7218;51.480;7.006;2023-08-17T10:47:25;100137.91;;;16.97;100.00
14269;BME280;7218;51.480;7.006;2023-08-17T10:49:56;100128.22;;;16.98;100.00
14269;BME280;7218;51.480;7.006;2023-08-17T10:52:27;100135.16;;;17.17;100.00
14269;BME280;7218;51.480;7.006;2023-08-17T10:54:54;100134.66;;;17.28;100.00
14269;BME280;7218;51.480;7.006;2023-08-17T10:57:25;100136.88;;;17.36;100.00
14269;BME280;7218;51.480;7.006;2023-08-17T11:00:07;100135.34;;;17.32;100.00
14269;BME280;7218;51.480;7.006;2023-08-17T11:02:37;100128.97;;;17.36;100.00
14269;BME280;7218;51.480;7.006;2023-08-17T11:05:04;100130.22;;;17.46;100.00
14269;BME280;7218;51.480;7.006;2023-08-17T11:07:39;100130.16;;;17.47;100.00
14269;BME280;7218;51.480;7.006;2023-08-17T11:10:11;100141.09;;;17.57;100.00
14269;BME280;7218;51.480;7.006;2023-08-17T11:12:37;100136.13;;;17.51;100.00
14269;BME280;7218;51.480;7.006;2023-08-17T11:15:04;100134.13;;;17.56;100.00
14269;BME280;7218;51.480;7.006;2023-08-17T11:17:31;100134.41;;;17.50;100.00
14269;BME280;7218;51.480;7.006;2023-08-17T11:19:59;100140.03;;;17.61;100.00
14269;BME280;7218;51.480;7.006;2023-08-17T11:22:25;100138.94;;;17.65;100.00
14269;BME280;7218;51.480;7.006;2023-08-17T11:24:52;100131.84;;;17.67;100.00
14269;BME280;7218;51.480;7.006;2023-08-17T11:27:19;100135.81;;;17.57;100.00
14269;BME280;7218;51.480;7.006;2023-08-17T11:29:46;100136.13;;;17.51;100.00
14269;BME280;7218;51.480;7.006;2023-08-17T11:32:16;100135.56;;;17.63;100.00
14269;BME280;7218;51.480;7.006;2023-08-17T11:34:42;100128.41;;;17.65;100.00
14269;BME280;7218;51.480;7.006;2023-08-17T11:37:12;100127.84;;;17.76;100.00
14269;BME280;7218;51.480;7.006;2023-08-17T11:39:39;100136.63;;;17.76;100.00
14269;BME280;7218;51.480;7.006;2023-08-17T11:42:06;100133.19;;;17.57;100.00
14269;BME280;7218;51.480;7.006;2023-08-17T11:44:33;100146.13;;;17.44;100.00
14269;BME280;7218;51.480;7.006;2023-08-17T11:46:59;100141.16;;;17.55;100.00
14269;BME280;7218;51.480;7.006;2023-08-17T11:49:26;100144.72;;;17.54;100.00
14269;BME280;7218;51.480;7.006;2023-08-17T11:51:52;100144.41;;;17.62;100.00
14269;BME280;7218;51.480;7.006;2023-08-17T11:54:20;100144.47;;;17.78;100.00
14269;BME280;7218;51.480;7.006;2023-08-17T11:56:47;100145.38;;;17.59;100.00
14269;BME280;7218;51.480;7.006;2023-08-17T11:59:13;100142.09;;;17.54;100.00
14269;BME280;7218;51.480;7.006;2023-08-17T12:01:43;100142.19;;;17.53;100.00
14269;BME280;7218;51.480;7.006;2023-08-17T12:04:10;100144.03;;;17.51;100.00
14269;BME280;7218;51.480;7.006;2023-08-17T12:06:43;100144.81;;;17.53;100.00
14269;BME280;7218;51.480;7.006;2023-08-17T12:09:09;100141.63;;;17.46;100.00
14269;BME280;7218;51.480;7.006;2023-08-17T12:11:39;100136.88;;;17.36;100.00
14269;BME280;7218;51.480;7.006;2023-08-17T12:48:36;100129.97;;;16.41;100.00
14269;BME280;7218;51.480;7.006;2023-08-17T12:51:03;100128.84;;;16.47;100.00
14269;BME280;7218;51.480;7.006;2023-08-17T12:53:29;100130.69;;;16.45;100.00
14269;BME280;7218;51.480;7.006;2023-08-17T12:55:56;100142.94;;;16.46;100.00
14269;BME280;7218;51.480;7.006;2023-08-17T12:58:22;100139.66;;;16.41;100.00
14269;BME280;7218;51.480;7.006;2023-08-17T13:00:49;100139.38;;;16.47;100.00
14269;BME280;7218;51.480;7.006;2023-08-17T13:03:16;100131.53;;;16.45;100.00
14269;BME280;7218;51.480;7.006;2023-08-17T13:05:44;100126.69;;;16.55;100.00
14269;BME280;7218;51.480;7.006;2023-08-17T13:08:11;100130.19;;;16.55;100.00
14269;BME280;7218;51.480;7.006;2023-08-17T13:10:37;100130.25;;;16.54;100.00
14269;BME280;7218;51.480;7.006;2023-08-17T13:13:04;100132.03;;;16.73;100.00
14269;BME280;7218;51.480;7.006;2023-08-17T13:15:31;100126.16;;;16.86;100.00
14269;BME280;7218;51.480;7.006;2023-08-17T13:17:58;100120.75;;;16.89;100.00
14269;BME280;7218;51.480;7.006;2023-08-17T13:20:25;100126.44;;;16.98;100.00
14269;BME280;7218;51.480;7.006;2023-08-17T13:22:53;100123.38;;;17.07;100.00
14269;BME280;7218;51.480;7.006;2023-08-17T13:25:19;100132.75;;;17.13;100.00